Skip Navigation Links Skip Navigation Links

Current Weather

Oskaloosa Muni, Oskaloosa, Iowa

For information only: do not use for flight planning or navigation.
Latest weather
Observation time Thursday, January 27, 2022 11:35 PM CST
Local time Thursday, January 27, 2022 11:45 PM CST
Flight conditions Marginal Visual Meteorological Conditions
Winds
Wind direction North-Northwest (330°)
Wind speed 18 mph
Visibility 10 mi.
Sky condition
Ceiling 2,100 ft. broken clouds
Cloud layer broken clouds 2,100 ft.
Cloud layer broken clouds 4,900 ft.
Cloud layer overcast 8,000 ft.
Temperature 19°F
Dewpoint 14°F
Altimeter 30.36 in.Hg
Derived measurements
Relative humidity 80%
Wind chill 4°F
Density altitude -2352 ft.
Remarks
Fully automated report.
Automated weather observing station with precipitation discriminator.
METAR KOOA 280535Z AUTO 33016KT 10SM BKN021 BKN049 OVC080 M07/M10 A3036 RMK AO2 T10701099

Settings

Location code

InnerDrive.Weather 4.0.6770.0 Release CLR 4.0.30319.42000
Copyright ©2018 Inner Drive Technology. All rights reserved. Portions Copyright ©1986-2018 David Braverman.

Find weather

Site navigation


Skip Navigation Links

Place info

Page info

PayPal - The safer, easier way to pay online!

Return home.

Copyright ©2022 Inner Drive Technology. Purveyors of fine, hand-crafted computer software. Page printed 2022-01-28T05:45:13 UTC.